Rechercher aéroport 
image banner adimage banner adimage banner ad
image banner ad

47CL - Spears

Situé à San Fernando, United States

ICAO - 47CL, IATA -

Données fournies par Airmate  

Information générale

Coordonnées: N34°18'47" W118°28'28"
Élévation : 1314 feet MSL.
 
Voir autres Aéroports à California

Données opérationnelles

Special qualification required
Heure actuelle UTC:
Heure actuelle locale:
Météo à : KWHP - Whiteman ( 8 km )
METAR: KWHP 020255Z 00000KT 10SM SKC 30/02 A3005
Voir NOTAMs / SUP AIP / TFR affectant cet aéroport [VIEW]
Fréquences de communication: [VIEW]

Pistes:

Coordonnées de l'aéroport

Adresse: San Fernando United States

Vue satellite de 47CL